createdAt,value
2022-12-06T00:00:16.385Z,974.80
2022-12-06T00:01:16.369Z,974.75
2022-12-06T00:02:16.397Z,974.76
2022-12-06T00:03:16.366Z,974.77
2022-12-06T00:04:16.319Z,974.80
2022-12-06T00:05:16.299Z,974.79
2022-12-06T00:06:16.283Z,974.77
2022-12-06T00:07:16.264Z,974.80
2022-12-06T00:08:16.354Z,974.77
2022-12-06T00:09:16.230Z,974.79
2022-12-06T00:10:16.207Z,974.79
2022-12-06T00:11:16.193Z,974.79
2022-12-06T00:12:16.173Z,974.77
2022-12-06T00:13:16.159Z,974.81
2022-12-06T00:14:16.137Z,974.77
2022-12-06T00:15:16.126Z,974.79
2022-12-06T00:16:16.219Z,974.82
2022-12-06T00:17:16.090Z,974.81
2022-12-06T00:18:16.268Z,974.83
2022-12-06T00:19:16.051Z,974.86
2022-12-06T00:20:16.051Z,974.89
2022-12-06T00:21:16.018Z,974.90
2022-12-06T00:22:15.997Z,974.92
2022-12-06T00:23:15.981Z,974.90
2022-12-06T00:24:15.978Z,974.86
2022-12-06T00:25:15.945Z,974.87
2022-12-06T00:26:15.925Z,974.88
2022-12-06T00:27:15.911Z,974.86
2022-12-06T00:28:15.890Z,974.82
2022-12-06T00:29:15.875Z,974.84
2022-12-06T00:30:15.857Z,974.76
2022-12-06T00:31:15.924Z,974.80
2022-12-06T00:32:19.472Z,974.76
2022-12-06T00:33:15.806Z,974.76
2022-12-06T00:34:15.784Z,974.73
2022-12-06T00:35:15.768Z,974.69
2022-12-06T00:36:15.749Z,974.70
2022-12-06T00:37:15.735Z,974.69
2022-12-06T00:38:15.714Z,974.70
2022-12-06T00:39:15.697Z,974.70
2022-12-06T00:40:15.697Z,974.66
2022-12-06T00:41:15.664Z,974.69
2022-12-06T00:42:15.644Z,974.64
2022-12-06T00:43:15.633Z,974.65
2022-12-06T00:44:15.608Z,974.65
2022-12-06T00:45:15.593Z,974.65
2022-12-06T00:46:15.742Z,974.64
2022-12-06T00:47:15.558Z,974.62
2022-12-06T00:48:15.539Z,974.62
2022-12-06T00:49:15.524Z,974.63
2022-12-06T00:50:15.501Z,974.62
2022-12-06T00:51:15.487Z,974.63
2022-12-06T00:52:15.468Z,974.62
2022-12-06T00:53:15.453Z,974.64
2022-12-06T00:54:15.431Z,974.64
2022-12-06T00:55:15.418Z,974.64
2022-12-06T00:56:15.414Z,974.61
2022-12-06T00:57:15.383Z,974.62
2022-12-06T00:58:15.361Z,974.58
2022-12-06T00:59:15.346Z,974.55
2022-12-06T01:00:15.326Z,974.57
2022-12-06T01:01:15.340Z,974.55
2022-12-06T01:02:15.291Z,974.52
2022-12-06T01:03:15.313Z,974.53
2022-12-06T01:04:15.263Z,974.55
2022-12-06T01:05:15.242Z,974.54
2022-12-06T01:06:15.234Z,974.53
2022-12-06T01:07:15.208Z,974.52
2022-12-06T01:08:15.241Z,974.52
2022-12-06T01:09:15.171Z,974.55
2022-12-06T01:10:15.150Z,974.57
2022-12-06T01:11:15.138Z,974.55
2022-12-06T01:12:15.138Z,974.51
2022-12-06T01:13:15.101Z,974.49
2022-12-06T01:14:15.080Z,974.55
2022-12-06T01:15:15.064Z,974.52
2022-12-06T01:16:15.147Z,974.56
2022-12-06T01:17:15.031Z,974.53
2022-12-06T01:18:15.010Z,974.55
2022-12-06T01:19:14.994Z,974.52
2022-12-06T01:20:14.974Z,974.54
2022-12-06T01:21:14.976Z,974.57
2022-12-06T01:22:14.939Z,974.53
2022-12-06T01:23:14.927Z,974.51
2022-12-06T01:24:14.907Z,974.51
2022-12-06T01:25:14.898Z,974.49
2022-12-06T01:26:14.869Z,974.53
2022-12-06T01:27:14.853Z,974.54
2022-12-06T01:28:14.854Z,974.50
2022-12-06T01:29:14.820Z,974.52
2022-12-06T01:30:14.811Z,974.52
2022-12-06T01:31:14.872Z,974.48
2022-12-06T01:32:14.766Z,974.47
2022-12-06T01:33:14.759Z,974.49
2022-12-06T01:34:14.734Z,974.51
2022-12-06T01:35:14.716Z,974.50
2022-12-06T01:36:14.744Z,974.48
2022-12-06T01:37:14.683Z,974.49
2022-12-06T01:38:14.659Z,974.49
2022-12-06T01:39:14.646Z,974.55
2022-12-06T01:40:14.626Z,974.53
2022-12-06T01:41:14.626Z,974.55
2022-12-06T01:42:14.590Z,974.56
2022-12-06T01:43:14.575Z,974.52
2022-12-06T01:44:18.484Z,974.50
2022-12-06T01:45:14.540Z,974.53
2022-12-06T01:46:14.554Z,974.53
2022-12-06T01:47:14.505Z,974.49
2022-12-06T01:48:14.484Z,974.52
2022-12-06T01:49:14.471Z,974.50
2022-12-06T01:50:14.450Z,974.54
2022-12-06T01:51:14.440Z,974.49
2022-12-06T01:52:14.416Z,974.45
2022-12-06T01:53:14.417Z,974.45
2022-12-06T01:54:14.481Z,974.45
2022-12-06T01:55:14.369Z,974.48
2022-12-06T01:56:14.396Z,974.46
2022-12-06T01:57:14.335Z,974.47
2022-12-06T01:58:14.317Z,974.46
2022-12-06T01:59:14.299Z,974.46
2022-12-06T02:00:14.300Z,974.45
2022-12-06T02:01:14.315Z,974.45
2022-12-06T02:02:14.284Z,974.44
2022-12-06T02:03:14.243Z,974.48
2022-12-06T02:04:14.209Z,974.45
2022-12-06T02:05:14.194Z,974.48
2022-12-06T02:06:14.175Z,974.50
2022-12-06T02:07:14.159Z,974.48
2022-12-06T02:08:14.202Z,974.50
2022-12-06T02:09:14.135Z,974.49
2022-12-06T02:10:14.106Z,974.46
2022-12-06T02:11:14.092Z,974.44
2022-12-06T02:12:14.069Z,974.40
2022-12-06T02:13:14.063Z,974.41
2022-12-06T02:14:14.035Z,974.41
2022-12-06T02:15:14.022Z,974.39
2022-12-06T02:16:14.067Z,974.37
2022-12-06T02:17:14.073Z,974.37
2022-12-06T02:18:13.968Z,974.35
2022-12-06T02:19:13.953Z,974.35
2022-12-06T02:20:13.934Z,974.34
2022-12-06T02:21:13.918Z,974.31
2022-12-06T02:22:13.898Z,974.32
2022-12-06T02:23:13.889Z,974.28
2022-12-06T02:24:13.863Z,974.27
2022-12-06T02:25:13.850Z,974.29
2022-12-06T02:26:13.831Z,974.25
2022-12-06T02:27:13.814Z,974.29
2022-12-06T02:28:13.795Z,974.27
2022-12-06T02:29:13.780Z,974.23
2022-12-06T02:30:13.762Z,974.23
2022-12-06T02:31:13.791Z,974.22
2022-12-06T02:32:13.743Z,974.17
2022-12-06T02:33:13.713Z,974.17
2022-12-06T02:34:13.691Z,974.15
2022-12-06T02:35:13.678Z,974.15
2022-12-06T02:36:13.657Z,974.16
2022-12-06T02:37:13.642Z,974.12
2022-12-06T02:38:13.622Z,974.09
2022-12-06T02:39:13.608Z,974.07
2022-12-06T02:40:13.588Z,974.07
2022-12-06T02:41:13.574Z,974.11
2022-12-06T02:42:13.553Z,974.06
2022-12-06T02:43:13.539Z,974.07
2022-12-06T02:44:13.523Z,974.07
2022-12-06T02:45:13.504Z,974.09
2022-12-06T02:46:13.531Z,974.03
2022-12-06T02:47:13.467Z,974.06
2022-12-06T02:48:13.473Z,974.05
2022-12-06T02:49:13.434Z,974.05
2022-12-06T02:50:13.419Z,974.06
2022-12-06T02:51:13.400Z,974.08
2022-12-06T02:52:13.386Z,974.07
2022-12-06T02:53:13.366Z,974.04
2022-12-06T02:54:13.350Z,974.05
2022-12-06T02:55:13.346Z,974.06
2022-12-06T02:56:13.316Z,974.06
2022-12-06T02:57:13.396Z,974.04
2022-12-06T02:58:13.384Z,974.08
2022-12-06T02:59:13.263Z,974.04
2022-12-06T03:00:14.262Z,974.03
2022-12-06T03:01:13.272Z,974.06
2022-12-06T03:02:13.274Z,974.03
2022-12-06T03:03:13.194Z,974.02
2022-12-06T03:04:13.221Z,974.03
2022-12-06T03:05:13.160Z,973.99
2022-12-06T03:06:13.147Z,973.98
2022-12-06T03:07:13.126Z,974.01
2022-12-06T03:08:13.220Z,973.98
2022-12-06T03:09:13.091Z,973.96
2022-12-06T03:10:13.077Z,973.99
2022-12-06T03:11:13.056Z,974.00
2022-12-06T03:12:13.043Z,974.00
2022-12-06T03:13:13.026Z,974.05
2022-12-06T03:14:14.798Z,974.01
2022-12-06T03:15:12.989Z,974.03
2022-12-06T03:16:13.015Z,974.07
2022-12-06T03:17:12.954Z,974.09
2022-12-06T03:18:12.940Z,974.10
2022-12-06T03:19:12.919Z,974.07
2022-12-06T03:20:12.926Z,974.09
2022-12-06T03:21:12.887Z,974.09
2022-12-06T03:22:12.871Z,974.05
2022-12-06T03:23:12.851Z,974.08
2022-12-06T03:24:12.838Z,974.04
2022-12-06T03:25:12.818Z,974.09
2022-12-06T03:26:12.804Z,974.06
2022-12-06T03:27:12.984Z,974.06
2022-12-06T03:28:12.770Z,974.07
2022-12-06T03:29:12.749Z,974.05
2022-12-06T03:30:12.738Z,974.10
2022-12-06T03:31:12.834Z,974.08
2022-12-06T03:32:12.699Z,974.09
2022-12-06T03:33:12.679Z,974.09
2022-12-06T03:34:12.666Z,974.07
2022-12-06T03:35:12.645Z,974.12
2022-12-06T03:36:12.650Z,974.06
2022-12-06T03:37:12.611Z,974.03
2022-12-06T03:38:12.597Z,974.06
2022-12-06T03:39:12.576Z,974.02
2022-12-06T03:40:12.579Z,974.03
2022-12-06T03:41:12.543Z,973.99
2022-12-06T03:42:12.528Z,973.99
2022-12-06T03:43:12.509Z,974.05
2022-12-06T03:44:12.495Z,974.05
2022-12-06T03:45:12.542Z,974.02
2022-12-06T03:46:12.673Z,974.03
2022-12-06T03:47:12.525Z,974.04
2022-12-06T03:48:12.427Z,974.00
2022-12-06T03:49:12.407Z,974.04
2022-12-06T03:50:12.390Z,974.04
2022-12-06T03:51:12.370Z,974.05
2022-12-06T03:52:12.374Z,974.05
2022-12-06T03:53:12.336Z,974.02
2022-12-06T03:54:12.322Z,974.03
2022-12-06T03:55:12.302Z,974.03
2022-12-06T03:56:12.286Z,974.02
2022-12-06T03:57:12.268Z,974.02
2022-12-06T03:58:12.256Z,974.03
2022-12-06T03:59:12.235Z,973.98
2022-12-06T04:00:12.218Z,974.03
2022-12-06T04:01:12.198Z,973.99
2022-12-06T04:02:12.250Z,974.03
2022-12-06T04:03:12.263Z,974.03
2022-12-06T04:04:12.211Z,974.05
2022-12-06T04:05:12.129Z,974.02
2022-12-06T04:06:12.122Z,973.97
2022-12-06T04:07:12.095Z,974.01
2022-12-06T04:08:12.159Z,973.99
2022-12-06T04:09:12.061Z,974.01
2022-12-06T04:10:12.047Z,973.99
2022-12-06T04:11:12.026Z,974.03
2022-12-06T04:12:12.013Z,974.03
2022-12-06T04:13:15.439Z,974.03
2022-12-06T04:14:11.977Z,974.08
2022-12-06T04:15:12.022Z,974.03
2022-12-06T04:16:11.992Z,974.05
2022-12-06T04:17:11.924Z,974.07
2022-12-06T04:18:11.909Z,974.04
2022-12-06T04:19:11.888Z,974.04
2022-12-06T04:20:11.873Z,974.05
2022-12-06T04:21:11.866Z,974.01
2022-12-06T04:22:11.849Z,974.03
2022-12-06T04:23:11.821Z,974.06
2022-12-06T04:24:11.826Z,974.03
2022-12-06T04:25:11.785Z,973.94
2022-12-06T04:26:11.772Z,974.00
2022-12-06T04:27:11.750Z,973.98
2022-12-06T04:28:11.736Z,973.99
2022-12-06T04:29:11.716Z,973.92
2022-12-06T04:30:11.703Z,973.94
2022-12-06T04:31:14.743Z,973.93
2022-12-06T04:32:11.669Z,973.96
2022-12-06T04:33:11.648Z,973.95
2022-12-06T04:34:11.637Z,973.91
2022-12-06T04:35:11.613Z,973.88
2022-12-06T04:36:11.602Z,973.84
2022-12-06T04:37:11.579Z,973.86
2022-12-06T04:38:11.566Z,973.85
2022-12-06T04:39:15.044Z,973.82
2022-12-06T04:40:11.552Z,973.82
2022-12-06T04:41:11.512Z,973.83
2022-12-06T04:42:11.497Z,973.79
2022-12-06T04:43:11.475Z,973.78
2022-12-06T04:44:11.462Z,973.73
2022-12-06T04:45:11.444Z,973.74
2022-12-06T04:46:11.487Z,973.69
2022-12-06T04:47:11.411Z,973.70
2022-12-06T04:48:11.393Z,973.71
2022-12-06T04:49:11.373Z,973.72
2022-12-06T04:50:11.358Z,973.74
2022-12-06T04:51:11.339Z,973.71
2022-12-06T04:52:11.325Z,973.71
2022-12-06T04:53:11.303Z,973.70
2022-12-06T04:54:11.290Z,973.68
2022-12-06T04:55:11.370Z,973.73
2022-12-06T04:56:11.273Z,973.68
2022-12-06T04:57:11.427Z,973.67
2022-12-06T04:58:11.222Z,973.66
2022-12-06T04:59:11.302Z,973.66
2022-12-06T05:00:11.187Z,973.62
2022-12-06T05:01:11.210Z,973.63
2022-12-06T05:02:11.154Z,973.59
2022-12-06T05:03:11.131Z,973.59
2022-12-06T05:04:11.200Z,973.60
2022-12-06T05:05:11.097Z,973.62
2022-12-06T05:06:11.104Z,973.61
2022-12-06T05:07:11.062Z,973.58
2022-12-06T05:08:11.121Z,973.60
2022-12-06T05:09:11.029Z,973.59
2022-12-06T05:10:11.014Z,973.61
2022-12-06T05:11:10.994Z,973.58
2022-12-06T05:12:10.995Z,973.59
2022-12-06T05:13:10.959Z,973.55
2022-12-06T05:14:10.945Z,973.59
2022-12-06T05:15:13.594Z,973.63
2022-12-06T05:16:10.963Z,973.59
2022-12-06T05:17:10.894Z,973.60
2022-12-06T05:18:10.877Z,973.61
2022-12-06T05:19:10.857Z,973.53
2022-12-06T05:20:10.843Z,973.51
2022-12-06T05:21:10.921Z,973.53
2022-12-06T05:22:10.808Z,973.52
2022-12-06T05:23:10.787Z,973.53
2022-12-06T05:24:10.774Z,973.52
2022-12-06T05:25:10.765Z,973.51
2022-12-06T05:26:10.805Z,973.51
2022-12-06T05:27:10.720Z,973.50
2022-12-06T05:28:10.722Z,973.52
2022-12-06T05:29:10.684Z,973.53
2022-12-06T05:30:10.671Z,973.50
2022-12-06T05:31:10.747Z,973.57
2022-12-06T05:32:10.637Z,973.53
2022-12-06T05:33:10.616Z,973.55
2022-12-06T05:34:10.601Z,973.53
2022-12-06T05:35:10.582Z,973.51
2022-12-06T05:36:10.567Z,973.56
2022-12-06T05:37:10.547Z,973.52
2022-12-06T05:38:10.534Z,973.55
2022-12-06T05:39:10.512Z,973.53
2022-12-06T05:40:10.502Z,973.53
2022-12-06T05:41:10.481Z,973.51
2022-12-06T05:42:10.465Z,973.53
2022-12-06T05:43:10.443Z,973.52
2022-12-06T05:44:10.446Z,973.46
2022-12-06T05:45:10.410Z,973.45
2022-12-06T05:46:10.430Z,973.49
2022-12-06T05:47:10.376Z,973.50
2022-12-06T05:48:10.361Z,973.51
2022-12-06T05:49:10.341Z,973.49
2022-12-06T05:50:10.328Z,973.53
2022-12-06T05:51:10.307Z,973.53
2022-12-06T05:52:10.293Z,973.50
2022-12-06T05:53:10.273Z,973.53
2022-12-06T05:54:10.259Z,973.54
2022-12-06T05:55:10.238Z,973.59
2022-12-06T05:56:10.234Z,973.56
2022-12-06T05:57:10.206Z,973.53
2022-12-06T05:58:10.196Z,973.57
2022-12-06T05:59:10.172Z,973.55
2022-12-06T06:00:10.174Z,973.52
2022-12-06T06:01:10.138Z,973.54
2022-12-06T06:02:10.287Z,973.55
2022-12-06T06:03:10.239Z,973.53
2022-12-06T06:04:10.089Z,973.54
2022-12-06T06:05:10.068Z,973.52
2022-12-06T06:06:10.054Z,973.56
2022-12-06T06:07:10.040Z,973.57
2022-12-06T06:08:10.145Z,973.52
2022-12-06T06:09:10.004Z,973.48
2022-12-06T06:10:10.084Z,973.48
2022-12-06T06:11:09.964Z,973.50
2022-12-06T06:12:12.736Z,973.49
2022-12-06T06:13:09.929Z,973.53
2022-12-06T06:14:09.918Z,973.52
2022-12-06T06:15:09.898Z,973.53
2022-12-06T06:16:09.997Z,973.51
2022-12-06T06:17:09.872Z,973.50
2022-12-06T06:18:09.847Z,973.48
2022-12-06T06:19:09.825Z,973.50
2022-12-06T06:20:09.819Z,973.49
2022-12-06T06:21:09.792Z,973.46
2022-12-06T06:22:09.782Z,973.47
2022-12-06T06:23:09.759Z,973.44
2022-12-06T06:24:09.743Z,973.41
2022-12-06T06:25:09.773Z,973.42
2022-12-06T06:26:09.712Z,973.37
2022-12-06T06:27:09.694Z,973.39
2022-12-06T06:28:09.676Z,973.37
2022-12-06T06:29:09.654Z,973.31
2022-12-06T06:30:09.657Z,973.32
2022-12-06T06:31:09.619Z,973.36
2022-12-06T06:32:09.728Z,973.38
2022-12-06T06:33:09.587Z,973.40
2022-12-06T06:34:09.572Z,973.34
2022-12-06T06:35:09.551Z,973.35
2022-12-06T06:36:09.537Z,973.37
2022-12-06T06:37:09.521Z,973.40
2022-12-06T06:38:09.503Z,973.40
2022-12-06T06:39:09.484Z,973.39
2022-12-06T06:40:09.468Z,973.37
2022-12-06T06:41:09.448Z,973.37
2022-12-06T06:42:09.435Z,973.32
2022-12-06T06:43:09.413Z,973.37
2022-12-06T06:44:09.398Z,973.36
2022-12-06T06:45:09.380Z,973.40
2022-12-06T06:46:09.435Z,973.39
2022-12-06T06:47:09.347Z,973.42
2022-12-06T06:48:09.349Z,973.40
2022-12-06T06:49:09.315Z,973.39
2022-12-06T06:50:09.296Z,973.34
2022-12-06T06:51:09.324Z,973.33
2022-12-06T06:52:09.261Z,973.35
2022-12-06T06:53:09.240Z,973.34
2022-12-06T06:54:09.228Z,973.39
2022-12-06T06:55:09.207Z,973.37
2022-12-06T06:56:09.195Z,973.34
2022-12-06T06:57:14.270Z,973.36
2022-12-06T06:58:09.159Z,973.34
2022-12-06T06:59:09.137Z,973.33
2022-12-06T07:00:09.126Z,973.32
2022-12-06T07:01:09.192Z,973.32
2022-12-06T07:02:09.143Z,973.35
2022-12-06T07:03:09.072Z,973.37
2022-12-06T07:04:09.170Z,973.33
2022-12-06T07:05:09.053Z,973.35
2022-12-06T07:06:09.021Z,973.27
2022-12-06T07:07:09.002Z,973.28
2022-12-06T07:08:09.064Z,973.33
2022-12-06T07:09:08.969Z,973.35
2022-12-06T07:10:08.948Z,973.38
2022-12-06T07:11:08.934Z,973.38
2022-12-06T07:12:08.914Z,973.42
2022-12-06T07:13:08.899Z,973.42
2022-12-06T07:14:08.879Z,973.48
2022-12-06T07:15:08.866Z,973.45
2022-12-06T07:16:08.856Z,973.45
2022-12-06T07:17:08.936Z,973.41
2022-12-06T07:18:08.810Z,973.43
2022-12-06T07:19:09.299Z,973.43
2022-12-06T07:20:08.796Z,973.45
2022-12-06T07:21:08.761Z,973.47
2022-12-06T07:22:08.742Z,973.43
2022-12-06T07:23:08.728Z,973.48
2022-12-06T07:24:08.707Z,973.44
2022-12-06T07:25:08.692Z,973.48
2022-12-06T07:26:08.672Z,973.50
2022-12-06T07:27:08.658Z,973.48
2022-12-06T07:28:08.638Z,973.46
2022-12-06T07:29:08.625Z,973.45
2022-12-06T07:30:08.606Z,973.49
2022-12-06T07:31:08.649Z,973.46
2022-12-06T07:32:08.570Z,973.47
2022-12-06T07:33:08.556Z,973.50
2022-12-06T07:34:08.536Z,973.48
2022-12-06T07:35:08.520Z,973.43
2022-12-06T07:36:13.239Z,973.43
2022-12-06T07:37:08.487Z,973.41
2022-12-06T07:38:08.466Z,973.43
2022-12-06T07:39:14.273Z,973.45
2022-12-06T07:40:08.431Z,973.47
2022-12-06T07:41:08.418Z,973.48
2022-12-06T07:42:08.399Z,973.46
2022-12-06T07:43:08.385Z,973.42
2022-12-06T07:44:08.364Z,973.39
2022-12-06T07:45:08.351Z,973.36
2022-12-06T07:46:08.391Z,973.34
2022-12-06T07:47:08.314Z,973.35
2022-12-06T07:48:08.295Z,973.35
2022-12-06T07:49:08.284Z,973.37
2022-12-06T07:50:12.917Z,973.34
2022-12-06T07:51:08.246Z,973.34
2022-12-06T07:52:08.272Z,973.34
2022-12-06T07:53:08.212Z,973.34
2022-12-06T07:54:08.200Z,973.36
2022-12-06T07:55:08.179Z,973.38
2022-12-06T07:56:08.159Z,973.40
2022-12-06T07:57:08.147Z,973.40
2022-12-06T07:58:08.124Z,973.43
2022-12-06T07:59:08.108Z,973.38
2022-12-06T08:00:08.090Z,973.41
2022-12-06T08:01:08.130Z,973.36
2022-12-06T08:02:08.057Z,973.38
2022-12-06T08:03:08.041Z,973.36
2022-12-06T08:04:08.089Z,973.34
2022-12-06T08:05:08.009Z,973.39
2022-12-06T08:06:07.996Z,973.35
2022-12-06T08:07:07.974Z,973.35
2022-12-06T08:08:08.071Z,973.32
2022-12-06T08:09:07.941Z,973.37
2022-12-06T08:10:07.920Z,973.40
2022-12-06T08:11:08.006Z,973.40
2022-12-06T08:12:07.885Z,973.38
2022-12-06T08:13:07.872Z,973.35
2022-12-06T08:14:07.851Z,973.34
2022-12-06T08:15:07.838Z,973.37
2022-12-06T08:16:07.954Z,973.31
2022-12-06T08:17:07.804Z,973.32
2022-12-06T08:18:07.787Z,973.31
2022-12-06T08:19:07.769Z,973.34
2022-12-06T08:20:07.749Z,973.35
2022-12-06T08:21:07.735Z,973.39
2022-12-06T08:22:07.716Z,973.40
2022-12-06T08:23:07.702Z,973.41
2022-12-06T08:24:07.728Z,973.42
2022-12-06T08:25:07.668Z,973.40
2022-12-06T08:26:07.658Z,973.40
2022-12-06T08:27:07.638Z,973.38
2022-12-06T08:28:07.619Z,973.39
2022-12-06T08:29:07.615Z,973.44
2022-12-06T08:30:07.584Z,973.42
2022-12-06T08:31:07.644Z,973.42
2022-12-06T08:32:07.545Z,973.44
2022-12-06T08:33:07.531Z,973.43
2022-12-06T08:34:07.512Z,973.43
2022-12-06T08:35:07.497Z,973.44
2022-12-06T08:36:07.479Z,973.44
2022-12-06T08:37:07.465Z,973.46
2022-12-06T08:38:07.445Z,973.45
2022-12-06T08:39:07.430Z,973.46
2022-12-06T08:40:07.428Z,973.43
2022-12-06T08:41:07.412Z,973.42
2022-12-06T08:42:07.376Z,973.44
2022-12-06T08:43:07.362Z,973.41
2022-12-06T08:44:07.340Z,973.40
2022-12-06T08:45:07.330Z,973.43
2022-12-06T08:46:07.332Z,973.45
2022-12-06T08:47:07.293Z,973.45
2022-12-06T08:48:07.274Z,973.39
2022-12-06T08:49:07.261Z,973.43
2022-12-06T08:50:07.252Z,973.44
2022-12-06T08:51:07.224Z,973.48
2022-12-06T08:52:07.203Z,973.44
2022-12-06T08:53:07.192Z,973.49
2022-12-06T08:54:07.172Z,973.50
2022-12-06T08:55:07.158Z,973.49
2022-12-06T08:56:07.154Z,973.48
2022-12-06T08:57:07.119Z,973.51
2022-12-06T08:58:07.101Z,973.53
2022-12-06T08:59:07.092Z,973.56
2022-12-06T09:00:07.067Z,973.53
2022-12-06T09:01:07.114Z,973.58
2022-12-06T09:02:07.065Z,973.54
2022-12-06T09:03:07.017Z,973.56
2022-12-06T09:04:07.098Z,973.60
2022-12-06T09:05:07.053Z,973.60
2022-12-06T09:06:06.977Z,973.58
2022-12-06T09:07:11.472Z,973.57
2022-12-06T09:08:07.071Z,973.62
2022-12-06T09:09:06.917Z,973.63
2022-12-06T09:10:06.898Z,973.63
2022-12-06T09:11:06.884Z,973.61
2022-12-06T09:12:06.984Z,973.59
2022-12-06T09:13:06.849Z,973.54
2022-12-06T09:14:06.829Z,973.61
2022-12-06T09:15:06.816Z,973.61
2022-12-06T09:16:06.832Z,973.57
2022-12-06T09:17:06.884Z,973.60
2022-12-06T09:18:06.765Z,973.60
2022-12-06T09:19:06.748Z,973.58
2022-12-06T09:20:06.791Z,973.59
2022-12-06T09:21:06.714Z,973.56
2022-12-06T09:22:06.694Z,973.56
2022-12-06T09:23:06.681Z,973.59
2022-12-06T09:24:06.661Z,973.60
2022-12-06T09:25:06.648Z,973.58
2022-12-06T09:26:06.628Z,973.57
2022-12-06T09:27:06.618Z,973.61
2022-12-06T09:28:06.612Z,973.61
2022-12-06T09:29:06.582Z,973.59
2022-12-06T09:30:06.560Z,973.60
2022-12-06T09:31:06.661Z,973.61
2022-12-06T09:32:06.527Z,973.60
2022-12-06T09:33:06.538Z,973.58
2022-12-06T09:34:06.494Z,973.59
2022-12-06T09:35:10.924Z,973.61
2022-12-06T09:36:06.461Z,973.58
2022-12-06T09:37:06.447Z,973.56
2022-12-06T09:38:06.426Z,973.51
2022-12-06T09:39:06.421Z,973.52
2022-12-06T09:40:06.395Z,973.53
2022-12-06T09:41:06.380Z,973.51
2022-12-06T09:42:06.365Z,973.55
2022-12-06T09:43:06.347Z,973.53
2022-12-06T09:44:06.346Z,973.56
2022-12-06T09:45:06.336Z,973.55
2022-12-06T09:46:06.387Z,973.56
2022-12-06T09:47:06.303Z,973.57
2022-12-06T09:48:06.263Z,973.56
2022-12-06T09:49:06.248Z,973.54
2022-12-06T09:50:06.229Z,973.56
2022-12-06T09:51:06.214Z,973.57
2022-12-06T09:52:06.195Z,973.55
2022-12-06T09:53:06.183Z,973.54
2022-12-06T09:54:06.164Z,973.56
2022-12-06T09:55:06.149Z,973.54
2022-12-06T09:56:06.130Z,973.53
2022-12-06T09:57:06.119Z,973.53
2022-12-06T09:58:06.103Z,973.53
2022-12-06T09:59:06.085Z,973.54
2022-12-06T10:00:10.896Z,973.53
2022-12-06T10:01:06.049Z,973.51
2022-12-06T10:02:06.118Z,973.51
2022-12-06T10:03:06.087Z,973.49
2022-12-06T10:04:05.999Z,973.52
2022-12-06T10:05:05.986Z,973.51
2022-12-06T10:06:05.967Z,973.47
2022-12-06T10:07:05.954Z,973.45
2022-12-06T10:08:06.105Z,973.42
2022-12-06T10:09:06.007Z,973.43
2022-12-06T10:10:05.905Z,973.42
2022-12-06T10:11:08.730Z,973.43
2022-12-06T10:12:05.868Z,973.45
2022-12-06T10:13:05.858Z,973.48
2022-12-06T10:14:05.836Z,973.50
2022-12-06T10:15:05.825Z,973.48
2022-12-06T10:16:05.934Z,973.48
2022-12-06T10:17:09.232Z,973.49
2022-12-06T10:18:05.773Z,973.45
2022-12-06T10:19:05.759Z,973.47
2022-12-06T10:20:05.740Z,973.50
2022-12-06T10:21:05.727Z,973.50
2022-12-06T10:22:05.707Z,973.45
2022-12-06T10:23:05.696Z,973.45
2022-12-06T10:24:05.673Z,973.41
2022-12-06T10:25:05.661Z,973.39
2022-12-06T10:26:05.643Z,973.37
2022-12-06T10:27:05.628Z,973.33
2022-12-06T10:28:05.610Z,973.33
2022-12-06T10:29:05.596Z,973.31
2022-12-06T10:30:05.576Z,973.34
2022-12-06T10:31:05.611Z,973.32
2022-12-06T10:32:05.565Z,973.37
2022-12-06T10:33:05.584Z,973.36
2022-12-06T10:34:05.530Z,973.37
2022-12-06T10:35:05.836Z,973.36
2022-12-06T10:36:05.480Z,973.35
2022-12-06T10:37:05.470Z,973.34
2022-12-06T10:38:05.453Z,973.34
2022-12-06T10:39:05.432Z,973.33
2022-12-06T10:40:05.742Z,973.30
2022-12-06T10:41:05.421Z,973.30
2022-12-06T10:42:05.388Z,973.30
2022-12-06T10:43:05.374Z,973.32
2022-12-06T10:44:05.350Z,973.32
2022-12-06T10:45:05.343Z,973.29
2022-12-06T10:46:09.011Z,973.33
2022-12-06T10:47:05.520Z,973.32
2022-12-06T10:48:05.304Z,973.29
2022-12-06T10:49:05.274Z,973.30
2022-12-06T10:50:05.252Z,973.27
2022-12-06T10:51:05.239Z,973.29
2022-12-06T10:52:05.219Z,973.32
2022-12-06T10:53:05.207Z,973.31
2022-12-06T10:54:05.188Z,973.27
2022-12-06T10:55:05.180Z,973.30
2022-12-06T10:56:05.153Z,973.26
2022-12-06T10:57:05.145Z,973.27
2022-12-06T10:58:05.123Z,973.28
2022-12-06T10:59:05.108Z,973.20
2022-12-06T11:00:09.072Z,973.21
2022-12-06T11:01:05.169Z,973.19
2022-12-06T11:02:05.105Z,973.19
2022-12-06T11:03:05.046Z,973.22
2022-12-06T11:04:05.053Z,973.20
2022-12-06T11:05:05.013Z,973.22
2022-12-06T11:06:04.994Z,973.25
2022-12-06T11:07:04.984Z,973.26
2022-12-06T11:08:05.047Z,973.26
2022-12-06T11:09:04.948Z,973.24
2022-12-06T11:10:04.931Z,973.21
2022-12-06T11:11:04.916Z,973.22
2022-12-06T11:12:04.898Z,973.20
2022-12-06T11:13:04.885Z,973.17
2022-12-06T11:14:04.865Z,973.20
2022-12-06T11:15:04.853Z,973.18
2022-12-06T11:16:04.937Z,973.16
2022-12-06T11:17:04.821Z,973.17
2022-12-06T11:18:04.806Z,973.13
2022-12-06T11:19:04.787Z,973.15
2022-12-06T11:20:04.819Z,973.10
2022-12-06T11:21:04.755Z,973.10
2022-12-06T11:22:04.744Z,973.05
2022-12-06T11:23:04.722Z,973.05
2022-12-06T11:24:04.710Z,973.06
2022-12-06T11:25:04.691Z,973.04
2022-12-06T11:26:04.677Z,973.08
2022-12-06T11:27:04.659Z,973.07
2022-12-06T11:28:04.647Z,973.08
2022-12-06T11:29:04.630Z,973.08
2022-12-06T11:30:04.613Z,973.06
2022-12-06T11:31:04.745Z,973.08
2022-12-06T11:32:04.615Z,973.06
2022-12-06T11:33:04.564Z,973.07
2022-12-06T11:34:04.551Z,973.05
2022-12-06T11:35:04.531Z,973.04
2022-12-06T11:36:04.536Z,973.05
2022-12-06T11:37:04.502Z,973.06
2022-12-06T11:38:04.489Z,973.05
2022-12-06T11:39:04.467Z,973.08
2022-12-06T11:40:04.456Z,973.07
2022-12-06T11:41:04.447Z,973.06
2022-12-06T11:42:04.435Z,973.02
2022-12-06T11:43:04.405Z,973.06
2022-12-06T11:44:04.390Z,973.04
2022-12-06T11:45:04.732Z,973.05
2022-12-06T11:46:04.362Z,973.03
2022-12-06T11:47:04.411Z,973.04
2022-12-06T11:48:04.328Z,973.04
2022-12-06T11:49:04.309Z,973.00
2022-12-06T11:50:08.628Z,973.03
2022-12-06T11:51:04.279Z,973.00
2022-12-06T11:52:04.283Z,973.00
2022-12-06T11:53:04.248Z,972.99
2022-12-06T11:54:04.234Z,972.97
2022-12-06T11:55:04.284Z,972.95
2022-12-06T11:56:04.202Z,972.97
2022-12-06T11:57:04.185Z,972.97
2022-12-06T11:58:04.173Z,972.96
2022-12-06T11:59:04.151Z,972.99
2022-12-06T12:00:04.139Z,973.00
2022-12-06T12:01:04.125Z,972.95
2022-12-06T12:02:04.195Z,972.90
2022-12-06T12:03:04.187Z,972.92
2022-12-06T12:04:04.075Z,972.89
2022-12-06T12:05:04.057Z,972.96
2022-12-06T12:06:04.047Z,972.95
2022-12-06T12:07:04.025Z,972.95
2022-12-06T12:08:04.115Z,972.98
2022-12-06T12:09:03.996Z,972.94
2022-12-06T12:10:03.981Z,972.97
2022-12-06T12:11:03.961Z,972.97
2022-12-06T12:12:03.949Z,972.93
2022-12-06T12:13:03.934Z,972.96
2022-12-06T12:14:03.918Z,972.94
2022-12-06T12:15:04.224Z,972.96
2022-12-06T12:16:03.938Z,972.90
2022-12-06T12:17:03.967Z,972.89
2022-12-06T12:18:03.855Z,972.88
2022-12-06T12:19:03.844Z,972.87
2022-12-06T12:20:03.823Z,972.90
2022-12-06T12:21:03.808Z,972.86
2022-12-06T12:22:03.790Z,972.89
2022-12-06T12:23:03.779Z,972.85
2022-12-06T12:24:03.779Z,972.87
2022-12-06T12:25:18.840Z,972.85
2022-12-06T12:26:03.727Z,972.82
2022-12-06T12:27:03.721Z,972.86
2022-12-06T12:28:03.696Z,972.87